sensor_id;sensor_type;location;lat;lon;timestamp;temperature;humidity
8709;DHT22;4391;48.678;9.280;2022-11-21T00:00:20;4.80;99.90
8709;DHT22;4391;48.678;9.280;2022-11-21T00:02:47;4.80;99.90
8709;DHT22;4391;48.678;9.280;2022-11-21T00:05:14;4.70;98.00
8709;DHT22;4391;48.678;9.280;2022-11-21T00:07:41;4.80;97.50
8709;DHT22;4391;48.678;9.280;2022-11-21T00:10:10;4.80;90.10
8709;DHT22;4391;48.678;9.280;2022-11-21T00:12:37;4.80;69.20
8709;DHT22;4391;48.678;9.280;2022-11-21T00:15:06;4.90;62.10
8709;DHT22;4391;48.678;9.280;2022-11-21T00:17:33;4.90;77.50
8709;DHT22;4391;48.678;9.280;2022-11-21T00:20:00;4.80;89.30
8709;DHT22;4391;48.678;9.280;2022-11-21T00:22:27;4.80;91.70
8709;DHT22;4391;48.678;9.280;2022-11-21T00:24:54;4.80;93.40
8709;DHT22;4391;48.678;9.280;2022-11-21T00:27:20;4.70;98.70
8709;DHT22;4391;48.678;9.280;2022-11-21T00:29:47;4.70;99.90
8709;DHT22;4391;48.678;9.280;2022-11-21T00:32:15;4.70;99.90
8709;DHT22;4391;48.678;9.280;2022-11-21T00:34:42;4.60;99.90
8709;DHT22;4391;48.678;9.280;2022-11-21T00:37:09;4.50;99.90
8709;DHT22;4391;48.678;9.280;2022-11-21T00:39:36;4.50;99.90
8709;DHT22;4391;48.678;9.280;2022-11-21T00:42:03;4.60;99.40
8709;DHT22;4391;48.678;9.280;2022-11-21T00:44:30;4.50;99.90
8709;DHT22;4391;48.678;9.280;2022-11-21T00:46:56;4.50;99.90
8709;DHT22;4391;48.678;9.280;2022-11-21T00:49:25;4.40;99.90
8709;DHT22;4391;48.678;9.280;2022-11-21T00:51:52;4.40;99.90
8709;DHT22;4391;48.678;9.280;2022-11-21T00:54:18;4.30;99.90
8709;DHT22;4391;48.678;9.280;2022-11-21T00:56:45;4.20;99.90
8709;DHT22;4391;48.678;9.280;2022-11-21T00:59:12;4.10;99.90
8709;DHT22;4391;48.678;9.280;2022-11-21T01:01:39;4.10;99.90
8709;DHT22;4391;48.678;9.280;2022-11-21T01:04:06;4.00;99.90
8709;DHT22;4391;48.678;9.280;2022-11-21T01:06:36;4.00;99.90
8709;DHT22;4391;48.678;9.280;2022-11-21T01:09:03;4.00;99.90
8709;DHT22;4391;48.678;9.280;2022-11-21T01:11:30;3.90;99.90
8709;DHT22;4391;48.678;9.280;2022-11-21T01:13:57;3.90;99.90
8709;DHT22;4391;48.678;9.280;2022-11-21T01:16:26;3.90;99.90
8709;DHT22;4391;48.678;9.280;2022-11-21T01:18:54;4.00;99.90
8709;DHT22;4391;48.678;9.280;2022-11-21T01:21:23;4.00;99.90
8709;DHT22;4391;48.678;9.280;2022-11-21T01:23:52;4.00;99.90
8709;DHT22;4391;48.678;9.280;2022-11-21T01:26:21;4.10;99.90
8709;DHT22;4391;48.678;9.280;2022-11-21T01:28:48;4.10;99.90
8709;DHT22;4391;48.678;9.280;2022-11-21T01:31:16;4.20;99.90
8709;DHT22;4391;48.678;9.280;2022-11-21T01:33:43;4.20;99.90
8709;DHT22;4391;48.678;9.280;2022-11-21T01:36:12;4.20;99.90
8709;DHT22;4391;48.678;9.280;2022-11-21T01:38:40;4.30;99.90
8709;DHT22;4391;48.678;9.280;2022-11-21T01:41:09;4.50;99.90
8709;DHT22;4391;48.678;9.280;2022-11-21T01:43:37;4.50;99.90
8709;DHT22;4391;48.678;9.280;2022-11-21T01:46:10;4.50;99.90
8709;DHT22;4391;48.678;9.280;2022-11-21T01:48:41;4.50;99.90
8709;DHT22;4391;48.678;9.280;2022-11-21T01:51:14;4.50;99.90
8709;DHT22;4391;48.678;9.280;2022-11-21T01:53:47;4.40;99.90
8709;DHT22;4391;48.678;9.280;2022-11-21T01:56:18;4.30;99.90
8709;DHT22;4391;48.678;9.280;2022-11-21T01:58:45;4.40;99.90
8709;DHT22;4391;48.678;9.280;2022-11-21T02:01:13;4.30;99.90
8709;DHT22;4391;48.678;9.280;2022-11-21T02:03:41;4.30;99.90
8709;DHT22;4391;48.678;9.280;2022-11-21T02:06:10;4.30;99.90
8709;DHT22;4391;48.678;9.280;2022-11-21T02:08:38;4.30;99.90
8709;DHT22;4391;48.678;9.280;2022-11-21T02:11:18;4.30;99.90
8709;DHT22;4391;48.678;9.280;2022-11-21T02:13:47;4.40;99.90
8709;DHT22;4391;48.678;9.280;2022-11-21T02:16:13;4.40;99.90
8709;DHT22;4391;48.678;9.280;2022-11-21T02:18:40;4.30;99.90
8709;DHT22;4391;48.678;9.280;2022-11-21T02:21:12;4.30;99.90
8709;DHT22;4391;48.678;9.280;2022-11-21T02:23:47;4.30;99.90
8709;DHT22;4391;48.678;9.280;2022-11-21T02:26:17;4.30;99.90
8709;DHT22;4391;48.678;9.280;2022-11-21T02:28:44;4.30;99.90
8709;DHT22;4391;48.678;9.280;2022-11-21T02:31:11;4.30;99.90
8709;DHT22;4391;48.678;9.280;2022-11-21T02:33:38;4.30;99.90
8709;DHT22;4391;48.678;9.280;2022-11-21T02:39:20;4.20;99.90
8709;DHT22;4391;48.678;9.280;2022-11-21T02:41:56;4.10;99.90
8709;DHT22;4391;48.678;9.280;2022-11-21T02:44:30;4.10;99.90
8709;DHT22;4391;48.678;9.280;2022-11-21T02:46:58;4.10;99.90
8709;DHT22;4391;48.678;9.280;2022-11-21T02:49:33;4.10;99.90
8709;DHT22;4391;48.678;9.280;2022-11-21T02:52:03;4.00;99.90
8709;DHT22;4391;48.678;9.280;2022-11-21T02:54:30;4.00;99.90
8709;DHT22;4391;48.678;9.280;2022-11-21T02:56:58;4.10;99.90
8709;DHT22;4391;48.678;9.280;2022-11-21T02:59:25;4.10;99.90
8709;DHT22;4391;48.678;9.280;2022-11-21T03:01:52;4.10;99.90
8709;DHT22;4391;48.678;9.280;2022-11-21T03:04:22;4.20;99.90
8709;DHT22;4391;48.678;9.280;2022-11-21T03:06:48;4.20;99.90
8709;DHT22;4391;48.678;9.280;2022-11-21T03:09:15;4.20;99.90
8709;DHT22;4391;48.678;9.280;2022-11-21T03:11:42;4.20;99.90
8709;DHT22;4391;48.678;9.280;2022-11-21T03:14:10;4.20;99.90
8709;DHT22;4391;48.678;9.280;2022-11-21T03:16:37;4.10;99.90
8709;DHT22;4391;48.678;9.280;2022-11-21T03:19:04;4.10;99.90
8709;DHT22;4391;48.678;9.280;2022-11-21T03:21:31;4.10;99.90
8709;DHT22;4391;48.678;9.280;2022-11-21T03:23:57;4.00;99.90
8709;DHT22;4391;48.678;9.280;2022-11-21T03:26:24;4.00;99.90
8709;DHT22;4391;48.678;9.280;2022-11-21T03:28:51;3.90;99.90
8709;DHT22;4391;48.678;9.280;2022-11-21T03:31:20;3.90;99.90
8709;DHT22;4391;48.678;9.280;2022-11-21T03:33:46;4.00;99.90
8709;DHT22;4391;48.678;9.280;2022-11-21T03:36:13;4.00;99.90
8709;DHT22;4391;48.678;9.280;2022-11-21T03:38:40;4.20;99.90
8709;DHT22;4391;48.678;9.280;2022-11-21T03:41:07;4.20;99.90
8709;DHT22;4391;48.678;9.280;2022-11-21T03:43:53;4.20;99.90
8709;DHT22;4391;48.678;9.280;2022-11-21T03:46:22;4.20;99.90
8709;DHT22;4391;48.678;9.280;2022-11-21T03:48:49;4.20;99.90
8709;DHT22;4391;48.678;9.280;2022-11-21T03:51:16;4.20;99.90
8709;DHT22;4391;48.678;9.280;2022-11-21T03:53:43;4.20;99.90
8709;DHT22;4391;48.678;9.280;2022-11-21T03:56:10;4.20;99.90
8709;DHT22;4391;48.678;9.280;2022-11-21T03:58:37;4.30;99.90
8709;DHT22;4391;48.678;9.280;2022-11-21T04:01:04;4.30;99.90
8709;DHT22;4391;48.678;9.280;2022-11-21T04:03:32;4.40;99.90
8709;DHT22;4391;48.678;9.280;2022-11-21T04:05:59;4.40;99.90
8709;DHT22;4391;48.678;9.280;2022-11-21T04:08:27;4.40;99.90
8709;DHT22;4391;48.678;9.280;2022-11-21T04:10:54;4.40;99.90
8709;DHT22;4391;48.678;9.280;2022-11-21T04:13:21;4.40;99.90
8709;DHT22;4391;48.678;9.280;2022-11-21T04:15:48;4.50;99.90
8709;DHT22;4391;48.678;9.280;2022-11-21T04:18:15;4.50;99.90
8709;DHT22;4391;48.678;9.280;2022-11-21T04:20:43;4.50;99.90
8709;DHT22;4391;48.678;9.280;2022-11-21T04:23:10;4.50;99.90
8709;DHT22;4391;48.678;9.280;2022-11-21T04:25:38;4.50;99.90
8709;DHT22;4391;48.678;9.280;2022-11-21T04:28:05;4.40;99.90
8709;DHT22;4391;48.678;9.280;2022-11-21T04:30:33;4.40;99.90
8709;DHT22;4391;48.678;9.280;2022-11-21T04:33:00;4.30;99.90
8709;DHT22;4391;48.678;9.280;2022-11-21T04:35:26;4.30;99.90
8709;DHT22;4391;48.678;9.280;2022-11-21T04:37:55;4.30;99.90
8709;DHT22;4391;48.678;9.280;2022-11-21T04:40:22;4.30;99.90
8709;DHT22;4391;48.678;9.280;2022-11-21T04:42:49;4.20;99.90
8709;DHT22;4391;48.678;9.280;2022-11-21T04:45:16;4.20;99.90
8709;DHT22;4391;48.678;9.280;2022-11-21T04:47:44;4.20;99.90
8709;DHT22;4391;48.678;9.280;2022-11-21T04:50:13;4.20;99.90
8709;DHT22;4391;48.678;9.280;2022-11-21T04:52:40;4.10;99.90
8709;DHT22;4391;48.678;9.280;2022-11-21T04:55:09;4.10;99.90
8709;DHT22;4391;48.678;9.280;2022-11-21T04:57:36;4.10;99.90
8709;DHT22;4391;48.678;9.280;2022-11-21T05:00:03;4.10;99.90
8709;DHT22;4391;48.678;9.280;2022-11-21T05:02:31;4.20;99.90
8709;DHT22;4391;48.678;9.280;2022-11-21T05:04:58;4.20;99.90
8709;DHT22;4391;48.678;9.280;2022-11-21T05:09:53;4.20;99.90
8709;DHT22;4391;48.678;9.280;2022-11-21T05:12:21;4.30;99.90
8709;DHT22;4391;48.678;9.280;2022-11-21T05:15:06;4.30;99.90
8709;DHT22;4391;48.678;9.280;2022-11-21T05:17:33;4.20;99.90
8709;DHT22;4391;48.678;9.280;2022-11-21T05:20:00;4.10;99.90
8709;DHT22;4391;48.678;9.280;2022-11-21T05:22:27;4.10;99.90
8709;DHT22;4391;48.678;9.280;2022-11-21T05:24:54;4.00;99.90
8709;DHT22;4391;48.678;9.280;2022-11-21T05:27:22;4.00;99.90
8709;DHT22;4391;48.678;9.280;2022-11-21T05:29:49;4.00;99.90
8709;DHT22;4391;48.678;9.280;2022-11-21T05:32:15;3.90;99.90
8709;DHT22;4391;48.678;9.280;2022-11-21T05:34:42;3.80;99.90
8709;DHT22;4391;48.678;9.280;2022-11-21T05:37:09;3.80;99.90
8709;DHT22;4391;48.678;9.280;2022-11-21T05:39:36;3.80;99.90
8709;DHT22;4391;48.678;9.280;2022-11-21T05:42:03;3.80;99.90
8709;DHT22;4391;48.678;9.280;2022-11-21T05:44:31;3.90;99.90
8709;DHT22;4391;48.678;9.280;2022-11-21T05:46:57;3.90;99.90
8709;DHT22;4391;48.678;9.280;2022-11-21T05:49:24;3.90;99.90
8709;DHT22;4391;48.678;9.280;2022-11-21T05:51:50;3.90;99.90
8709;DHT22;4391;48.678;9.280;2022-11-21T05:54:17;3.90;99.90
8709;DHT22;4391;48.678;9.280;2022-11-21T05:56:44;4.00;99.90
8709;DHT22;4391;48.678;9.280;2022-11-21T05:59:11;3.90;99.90
8709;DHT22;4391;48.678;9.280;2022-11-21T06:01:39;3.90;99.90
8709;DHT22;4391;48.678;9.280;2022-11-21T06:04:24;3.90;99.90
8709;DHT22;4391;48.678;9.280;2022-11-21T06:06:50;3.80;99.90
8709;DHT22;4391;48.678;9.280;2022-11-21T06:09:17;3.80;99.90
8709;DHT22;4391;48.678;9.280;2022-11-21T06:11:44;3.80;99.90
8709;DHT22;4391;48.678;9.280;2022-11-21T06:14:11;3.80;99.90
8709;DHT22;4391;48.678;9.280;2022-11-21T06:16:39;3.80;99.90
8709;DHT22;4391;48.678;9.280;2022-11-21T06:19:06;3.80;99.90
8709;DHT22;4391;48.678;9.280;2022-11-21T06:21:33;3.80;99.90
8709;DHT22;4391;48.678;9.280;2022-11-21T06:24:01;3.80;99.90
8709;DHT22;4391;48.678;9.280;2022-11-21T06:26:28;3.80;99.90
8709;DHT22;4391;48.678;9.280;2022-11-21T06:28:56;3.80;99.90
8709;DHT22;4391;48.678;9.280;2022-11-21T06:31:24;3.80;99.90
8709;DHT22;4391;48.678;9.280;2022-11-21T06:33:54;3.80;99.90
8709;DHT22;4391;48.678;9.280;2022-11-21T06:36:21;3.80;99.90
8709;DHT22;4391;48.678;9.280;2022-11-21T06:38:48;3.70;99.90
8709;DHT22;4391;48.678;9.280;2022-11-21T06:41:16;3.70;99.90
8709;DHT22;4391;48.678;9.280;2022-11-21T06:43:44;3.70;99.90
8709;DHT22;4391;48.678;9.280;2022-11-21T06:46:12;3.60;99.90
8709;DHT22;4391;48.678;9.280;2022-11-21T06:48:40;3.60;99.90
8709;DHT22;4391;48.678;9.280;2022-11-21T06:51:11;3.50;99.90
8709;DHT22;4391;48.678;9.280;2022-11-21T06:53:38;3.50;99.90
8709;DHT22;4391;48.678;9.280;2022-11-21T06:56:05;3.40;99.90
8709;DHT22;4391;48.678;9.280;2022-11-21T06:58:32;3.40;99.90
8709;DHT22;4391;48.678;9.280;2022-11-21T07:01:03;3.40;99.90
8709;DHT22;4391;48.678;9.280;2022-11-21T07:03:30;3.40;99.90
8709;DHT22;4391;48.678;9.280;2022-11-21T07:05:58;3.40;99.90
8709;DHT22;4391;48.678;9.280;2022-11-21T07:08:28;3.30;99.90
8709;DHT22;4391;48.678;9.280;2022-11-21T07:10:56;3.30;99.90
8709;DHT22;4391;48.678;9.280;2022-11-21T07:13:26;3.30;99.90
8709;DHT22;4391;48.678;9.280;2022-11-21T07:15:58;3.30;99.90
8709;DHT22;4391;48.678;9.280;2022-11-21T07:18:26;3.30;99.90
8709;DHT22;4391;48.678;9.280;2022-11-21T07:20:57;3.30;99.90
8709;DHT22;4391;48.678;9.280;2022-11-21T07:23:24;3.20;99.90
8709;DHT22;4391;48.678;9.280;2022-11-21T07:25:53;3.20;99.90
8709;DHT22;4391;48.678;9.280;2022-11-21T07:28:20;3.20;99.90
8709;DHT22;4391;48.678;9.280;2022-11-21T07:30:47;3.20;99.90
8709;DHT22;4391;48.678;9.280;2022-11-21T07:33:14;3.20;99.90
8709;DHT22;4391;48.678;9.280;2022-11-21T07:35:41;3.20;99.90
8709;DHT22;4391;48.678;9.280;2022-11-21T07:38:09;3.30;99.90
8709;DHT22;4391;48.678;9.280;2022-11-21T07:40:36;3.30;99.90
8709;DHT22;4391;48.678;9.280;2022-11-21T07:43:05;3.30;99.90
8709;DHT22;4391;48.678;9.280;2022-11-21T07:45:32;3.40;99.90
8709;DHT22;4391;48.678;9.280;2022-11-21T07:48:00;3.30;99.90
8709;DHT22;4391;48.678;9.280;2022-11-21T07:50:28;3.40;99.90
8709;DHT22;4391;48.678;9.280;2022-11-21T07:52:57;3.50;99.90
8709;DHT22;4391;48.678;9.280;2022-11-21T07:55:25;3.40;99.90
8709;DHT22;4391;48.678;9.280;2022-11-21T07:57:58;3.40;99.90
8709;DHT22;4391;48.678;9.280;2022-11-21T08:00:27;3.50;99.90
8709;DHT22;4391;48.678;9.280;2022-11-21T08:02:54;3.60;99.90
8709;DHT22;4391;48.678;9.280;2022-11-21T08:05:21;3.60;99.90
8709;DHT22;4391;48.678;9.280;2022-11-21T08:07:48;3.70;99.90
8709;DHT22;4391;48.678;9.280;2022-11-21T08:10:15;3.80;99.90
8709;DHT22;4391;48.678;9.280;2022-11-21T08:12:42;3.90;99.90
8709;DHT22;4391;48.678;9.280;2022-11-21T08:15:10;4.10;99.90
8709;DHT22;4391;48.678;9.280;2022-11-21T08:17:38;4.20;99.90
8709;DHT22;4391;48.678;9.280;2022-11-21T08:20:07;4.30;99.90
8709;DHT22;4391;48.678;9.280;2022-11-21T08:22:37;4.50;99.90
8709;DHT22;4391;48.678;9.280;2022-11-21T08:25:06;4.60;99.90
8709;DHT22;4391;48.678;9.280;2022-11-21T08:27:35;4.80;99.90
8709;DHT22;4391;48.678;9.280;2022-11-21T08:30:03;5.00;99.90
8709;DHT22;4391;48.678;9.280;2022-11-21T08:32:30;5.20;96.10
8709;DHT22;4391;48.678;9.280;2022-11-21T08:34:59;5.50;96.20
8709;DHT22;4391;48.678;9.280;2022-11-21T08:37:26;5.70;66.80
8709;DHT22;4391;48.678;9.280;2022-11-21T08:39:53;5.90;78.50
8709;DHT22;4391;48.678;9.280;2022-11-21T08:42:20;6.00;43.00
8709;DHT22;4391;48.678;9.280;2022-11-21T08:44:47;6.00;54.70
8709;DHT22;4391;48.678;9.280;2022-11-21T08:47:14;6.00;35.00
8709;DHT22;4391;48.678;9.280;2022-11-21T08:49:40;5.90;43.50
8709;DHT22;4391;48.678;9.280;2022-11-21T08:52:09;5.80;57.50
8709;DHT22;4391;48.678;9.280;2022-11-21T08:54:35;5.70;67.40
8709;DHT22;4391;48.678;9.280;2022-11-21T08:57:03;5.90;87.30
8709;DHT22;4391;48.678;9.280;2022-11-21T08:59:30;6.30;72.00
8709;DHT22;4391;48.678;9.280;2022-11-21T09:01:56;6.60;24.40
8709;DHT22;4391;48.678;9.280;2022-11-21T09:04:23;6.90;1.00
8709;DHT22;4391;48.678;9.280;2022-11-21T09:06:50;7.10;1.00
8709;DHT22;4391;48.678;9.280;2022-11-21T09:09:18;7.40;1.00
8709;DHT22;4391;48.678;9.280;2022-11-21T09:11:45;7.50;1.00
8709;DHT22;4391;48.678;9.280;2022-11-21T09:14:12;7.80;1.00
8709;DHT22;4391;48.678;9.280;2022-11-21T09:16:56;8.10;1.00
8709;DHT22;4391;48.678;9.280;2022-11-21T09:19:40;8.40;99.90
8709;DHT22;4391;48.678;9.280;2022-11-21T09:22:07;8.50;99.90
8709;DHT22;4391;48.678;9.280;2022-11-21T09:24:35;8.60;99.90
8709;DHT22;4391;48.678;9.280;2022-11-21T09:27:02;8.80;1.00
8709;DHT22;4391;48.678;9.280;2022-11-21T09:29:29;9.10;99.90
8709;DHT22;4391;48.678;9.280;2022-11-21T09:31:56;9.40;1.00
8709;DHT22;4391;48.678;9.280;2022-11-21T09:34:22;9.70;1.00
8709;DHT22;4391;48.678;9.280;2022-11-21T09:36:51;9.40;99.90
8709;DHT22;4391;48.678;9.280;2022-11-21T09:39:18;9.60;1.00
8709;DHT22;4391;48.678;9.280;2022-11-21T09:41:56;9.50;1.00
8709;DHT22;4391;48.678;9.280;2022-11-21T09:47:21;9.50;99.90
8709;DHT22;4391;48.678;9.280;2022-11-21T09:49:55;9.60;1.00
8709;DHT22;4391;48.678;9.280;2022-11-21T09:52:27;9.70;99.90
8709;DHT22;4391;48.678;9.280;2022-11-21T09:54:59;10.30;99.90
8709;DHT22;4391;48.678;9.280;2022-11-21T09:57:28;10.60;1.00
8709;DHT22;4391;48.678;9.280;2022-11-21T09:59:56;10.70;99.90
8709;DHT22;4391;48.678;9.280;2022-11-21T10:02:24;10.40;99.90
8709;DHT22;4391;48.678;9.280;2022-11-21T10:04:51;9.90;1.00
8709;DHT22;4391;48.678;9.280;2022-11-21T10:07:22;10.10;99.90
8709;DHT22;4391;48.678;9.280;2022-11-21T10:10:09;10.20;1.00
8709;DHT22;4391;48.678;9.280;2022-11-21T10:12:50;10.20;41.90
8709;DHT22;4391;48.678;9.280;2022-11-21T10:15:32;10.60;1.00
8709;DHT22;4391;48.678;9.280;2022-11-21T10:18:22;11.00;99.90
8709;DHT22;4391;48.678;9.280;2022-11-21T10:21:00;11.30;99.90
8709;DHT22;4391;48.678;9.280;2022-11-21T10:23:53;11.70;1.00
8709;DHT22;4391;48.678;9.280;2022-11-21T10:26:32;11.70;1.00
8709;DHT22;4391;48.678;9.280;2022-11-21T10:29:08;12.10;1.00
8709;DHT22;4391;48.678;9.280;2022-11-21T10:31:39;12.60;1.00
8709;DHT22;4391;48.678;9.280;2022-11-21T10:34:09;12.90;1.00
8709;DHT22;4391;48.678;9.280;2022-11-21T10:36:40;12.80;1.00
8709;DHT22;4391;48.678;9.280;2022-11-21T10:39:13;12.20;1.00
8709;DHT22;4391;48.678;9.280;2022-11-21T10:41:47;11.70;1.00
8709;DHT22;4391;48.678;9.280;2022-11-21T10:44:24;11.40;1.00
8709;DHT22;4391;48.678;9.280;2022-11-21T10:47:14;10.70;99.90
8709;DHT22;4391;48.678;9.280;2022-11-21T10:49:56;10.00;1.00
8709;DHT22;4391;48.678;9.280;2022-11-21T10:52:25;9.60;1.00
8709;DHT22;4391;48.678;9.280;2022-11-21T10:55:11;10.00;99.90
8709;DHT22;4391;48.678;9.280;2022-11-21T10:57:42;10.60;99.90
8709;DHT22;4391;48.678;9.280;2022-11-21T11:00:19;11.20;99.90
8709;DHT22;4391;48.678;9.280;2022-11-21T11:03:03;11.60;6.80
8709;DHT22;4391;48.678;9.280;2022-11-21T11:05:31;12.00;1.00
8709;DHT22;4391;48.678;9.280;2022-11-21T11:08:03;12.20;1.00
8709;DHT22;4391;48.678;9.280;2022-11-21T11:10:31;12.20;1.00
8709;DHT22;4391;48.678;9.280;2022-11-21T11:12:58;11.80;1.00
8709;DHT22;4391;48.678;9.280;2022-11-21T11:16:05;11.60;1.00
8709;DHT22;4391;48.678;9.280;2022-11-21T11:18:34;11.50;1.00
8709;DHT22;4391;48.678;9.280;2022-11-21T11:21:14;12.10;1.00
8709;DHT22;4391;48.678;9.280;2022-11-21T11:23:41;12.00;1.00
8709;DHT22;4391;48.678;9.280;2022-11-21T11:26:23;12.10;1.00
8709;DHT22;4391;48.678;9.280;2022-11-21T11:28:52;12.30;1.00
8709;DHT22;4391;48.678;9.280;2022-11-21T11:31:21;12.40;1.00
8709;DHT22;4391;48.678;9.280;2022-11-21T11:33:51;12.40;1.00
8709;DHT22;4391;48.678;9.280;2022-11-21T11:36:35;12.10;1.00
8709;DHT22;4391;48.678;9.280;2022-11-21T11:39:15;11.40;1.00
8709;DHT22;4391;48.678;9.280;2022-11-21T11:45:14;10.60;1.00
8709;DHT22;4391;48.678;9.280;2022-11-21T11:48:03;10.20;99.90
8709;DHT22;4391;48.678;9.280;2022-11-21T11:50:36;10.30;99.90
8709;DHT22;4391;48.678;9.280;2022-11-21T11:53:09;10.40;99.90
8709;DHT22;4391;48.678;9.280;2022-11-21T11:55:41;10.60;99.90
8709;DHT22;4391;48.678;9.280;2022-11-21T11:58:17;10.50;71.60
8709;DHT22;4391;48.678;9.280;2022-11-21T12:00:47;10.40;99.90
8709;DHT22;4391;48.678;9.280;2022-11-21T12:03:19;10.40;59.90
8709;DHT22;4391;48.678;9.280;2022-11-21T12:05:57;10.60;99.90
8709;DHT22;4391;48.678;9.280;2022-11-21T12:08:32;10.60;1.00
8709;DHT22;4391;48.678;9.280;2022-11-21T12:11:05;10.30;99.90
8709;DHT22;4391;48.678;9.280;2022-11-21T12:13:54;10.20;99.90
8709;DHT22;4391;48.678;9.280;2022-11-21T12:16:24;10.10;99.90
8709;DHT22;4391;48.678;9.280;2022-11-21T12:18:57;10.60;99.90
8709;DHT22;4391;48.678;9.280;2022-11-21T12:21:26;11.30;90.60
8709;DHT22;4391;48.678;9.280;2022-11-21T12:23:55;12.00;1.00
8709;DHT22;4391;48.678;9.280;2022-11-21T12:26:41;12.60;99.90
8709;DHT22;4391;48.678;9.280;2022-11-21T12:29:23;12.80;99.90
8709;DHT22;4391;48.678;9.280;2022-11-21T12:32:06;12.90;99.90
8709;DHT22;4391;48.678;9.280;2022-11-21T12:34:50;13.30;99.90
8709;DHT22;4391;48.678;9.280;2022-11-21T12:37:32;13.80;99.90
8709;DHT22;4391;48.678;9.280;2022-11-21T12:40:15;13.60;99.90
8709;DHT22;4391;48.678;9.280;2022-11-21T12:42:59;14.60;99.90
8709;DHT22;4391;48.678;9.280;2022-11-21T12:45:30;16.30;99.90
8709;DHT22;4391;48.678;9.280;2022-11-21T12:48:19;17.70;99.90
8709;DHT22;4391;48.678;9.280;2022-11-21T12:51:20;19.10;99.90
8709;DHT22;4391;48.678;9.280;2022-11-21T12:57:07;18.70;99.90
8709;DHT22;4391;48.678;9.280;2022-11-21T12:59:45;16.90;99.90
8709;DHT22;4391;48.678;9.280;2022-11-21T13:02:22;16.50;99.90
8709;DHT22;4391;48.678;9.280;2022-11-21T13:04:53;17.30;99.90
8709;DHT22;4391;48.678;9.280;2022-11-21T13:07:23;19.10;99.90
8709;DHT22;4391;48.678;9.280;2022-11-21T13:09:52;19.30;99.90
8709;DHT22;4391;48.678;9.280;2022-11-21T13:12:25;20.10;99.90
8709;DHT22;4391;48.678;9.280;2022-11-21T13:15:02;21.30;99.90
8709;DHT22;4391;48.678;9.280;2022-11-21T13:17:40;20.80;99.90
8709;DHT22;4391;48.678;9.280;2022-11-21T13:20:18;18.60;99.90
8709;DHT22;4391;48.678;9.280;2022-11-21T13:22:50;18.20;99.90
8709;DHT22;4391;48.678;9.280;2022-11-21T13:28:39;16.90;99.90
8709;DHT22;4391;48.678;9.280;2022-11-21T13:31:27;16.20;99.90
8709;DHT22;4391;48.678;9.280;2022-11-21T13:33:55;14.60;99.90
8709;DHT22;4391;48.678;9.280;2022-11-21T13:36:43;13.70;99.90
8709;DHT22;4391;48.678;9.280;2022-11-21T13:39:33;14.00;99.90
8709;DHT22;4391;48.678;9.280;2022-11-21T13:42:11;14.00;99.90
8709;DHT22;4391;48.678;9.280;2022-11-21T13:44:56;13.50;99.90
8709;DHT22;4391;48.678;9.280;2022-11-21T13:47:38;12.50;99.90
8709;DHT22;4391;48.678;9.280;2022-11-21T13:50:09;12.10;99.90
8709;DHT22;4391;48.678;9.280;2022-11-21T13:52:44;11.30;99.90
8709;DHT22;4391;48.678;9.280;2022-11-21T13:55:34;10.80;99.90
8709;DHT22;4391;48.678;9.280;2022-11-21T13:58:12;10.30;99.90
8709;DHT22;4391;48.678;9.280;2022-11-21T14:00:57;10.00;1.00
8709;DHT22;4391;48.678;9.280;2022-11-21T14:03:42;9.90;1.00
8709;DHT22;4391;48.678;9.280;2022-11-21T14:06:34;9.80;1.00
8709;DHT22;4391;48.678;9.280;2022-11-21T14:09:20;9.70;1.00
8709;DHT22;4391;48.678;9.280;2022-11-21T14:11:52;9.60;1.00
8709;DHT22;4391;48.678;9.280;2022-11-21T14:14:28;9.50;1.00
8709;DHT22;4391;48.678;9.280;2022-11-21T14:17:08;9.50;1.00
8709;DHT22;4391;48.678;9.280;2022-11-21T14:19:40;9.50;1.00
8709;DHT22;4391;48.678;9.280;2022-11-21T14:22:14;9.30;1.00
8709;DHT22;4391;48.678;9.280;2022-11-21T14:24:41;9.20;34.20
8709;DHT22;4391;48.678;9.280;2022-11-21T14:27:18;9.20;1.00
8709;DHT22;4391;48.678;9.280;2022-11-21T14:29:47;9.10;75.10
8709;DHT22;4391;48.678;9.280;2022-11-21T14:32:24;9.00;19.30
8709;DHT22;4391;48.678;9.280;2022-11-21T14:34:51;8.90;99.90
8709;DHT22;4391;48.678;9.280;2022-11-21T14:37:18;8.80;99.90
8709;DHT22;4391;48.678;9.280;2022-11-21T14:39:47;8.80;99.90
8709;DHT22;4391;48.678;9.280;2022-11-21T14:42:15;8.70;99.90
8709;DHT22;4391;48.678;9.280;2022-11-21T14:44:42;8.70;1.00
8709;DHT22;4391;48.678;9.280;2022-11-21T14:47:14;8.70;99.90
8709;DHT22;4391;48.678;9.280;2022-11-21T14:49:48;8.60;99.90
8709;DHT22;4391;48.678;9.280;2022-11-21T14:52:18;8.50;99.90
8709;DHT22;4391;48.678;9.280;2022-11-21T14:54:49;8.40;99.90
8709;DHT22;4391;48.678;9.280;2022-11-21T14:57:23;8.40;1.00
8709;DHT22;4391;48.678;9.280;2022-11-21T14:59:52;8.30;99.90
8709;DHT22;4391;48.678;9.280;2022-11-21T15:02:21;8.20;1.00
8709;DHT22;4391;48.678;9.280;2022-11-21T15:04:50;8.10;99.90
8709;DHT22;4391;48.678;9.280;2022-11-21T15:07:21;8.00;1.00
8709;DHT22;4391;48.678;9.280;2022-11-21T15:09:50;7.90;1.00
8709;DHT22;4391;48.678;9.280;2022-11-21T15:12:23;7.80;99.90
8709;DHT22;4391;48.678;9.280;2022-11-21T15:14:53;7.60;99.90
8709;DHT22;4391;48.678;9.280;2022-11-21T15:17:22;7.40;99.90
8709;DHT22;4391;48.678;9.280;2022-11-21T15:20:04;7.30;99.90
8709;DHT22;4391;48.678;9.280;2022-11-21T15:22:34;7.20;99.90
8709;DHT22;4391;48.678;9.280;2022-11-21T15:25:08;7.00;99.90
8709;DHT22;4391;48.678;9.280;2022-11-21T15:27:36;6.90;1.00
8709;DHT22;4391;48.678;9.280;2022-11-21T15:33:13;6.60;1.00
8709;DHT22;4391;48.678;9.280;2022-11-21T15:35:47;6.50;99.90
8709;DHT22;4391;48.678;9.280;2022-11-21T15:38:20;6.50;1.00
8709;DHT22;4391;48.678;9.280;2022-11-21T15:41:02;6.50;1.00
8709;DHT22;4391;48.678;9.280;2022-11-21T15:43:39;6.40;99.90
8709;DHT22;4391;48.678;9.280;2022-11-21T15:46:18;6.20;1.00
8709;DHT22;4391;48.678;9.280;2022-11-21T15:48:46;6.10;1.00
8709;DHT22;4391;48.678;9.280;2022-11-21T15:51:14;5.90;1.00
8709;DHT22;4391;48.678;9.280;2022-11-21T15:53:41;5.90;1.00
8709;DHT22;4391;48.678;9.280;2022-11-21T15:56:15;5.80;1.00
8709;DHT22;4391;48.678;9.280;2022-11-21T15:58:44;5.80;1.00
8709;DHT22;4391;48.678;9.280;2022-11-21T16:01:13;5.80;1.00
8709;DHT22;4391;48.678;9.280;2022-11-21T16:03:41;5.70;1.00
8709;DHT22;4391;48.678;9.280;2022-11-21T16:06:08;5.60;1.00
8709;DHT22;4391;48.678;9.280;2022-11-21T16:08:36;5.50;1.00
8709;DHT22;4391;48.678;9.280;2022-11-21T16:11:04;5.50;1.00
8709;DHT22;4391;48.678;9.280;2022-11-21T16:13:31;5.50;1.00
8709;DHT22;4391;48.678;9.280;2022-11-21T16:16:00;5.40;1.00
8709;DHT22;4391;48.678;9.280;2022-11-21T16:18:30;5.40;1.00
8709;DHT22;4391;48.678;9.280;2022-11-21T16:21:04;5.30;1.00
8709;DHT22;4391;48.678;9.280;2022-11-21T16:23:31;5.20;1.00
8709;DHT22;4391;48.678;9.280;2022-11-21T16:25:58;5.20;1.00
8709;DHT22;4391;48.678;9.280;2022-11-21T16:28:26;5.20;1.00
8709;DHT22;4391;48.678;9.280;2022-11-21T16:30:53;5.20;1.00
8709;DHT22;4391;48.678;9.280;2022-11-21T16:33:21;5.20;1.00
8709;DHT22;4391;48.678;9.280;2022-11-21T16:35:48;5.20;1.00
8709;DHT22;4391;48.678;9.280;2022-11-21T16:38:20;5.20;1.00
8709;DHT22;4391;48.678;9.280;2022-11-21T16:40:52;5.10;1.00
8709;DHT22;4391;48.678;9.280;2022-11-21T16:43:19;5.10;1.00
8709;DHT22;4391;48.678;9.280;2022-11-21T16:45:46;5.00;1.00
8709;DHT22;4391;48.678;9.280;2022-11-21T16:48:12;5.00;1.00
8709;DHT22;4391;48.678;9.280;2022-11-21T16:50:41;5.00;1.00
8709;DHT22;4391;48.678;9.280;2022-11-21T16:53:08;5.00;1.00
8709;DHT22;4391;48.678;9.280;2022-11-21T16:55:35;5.00;1.00
8709;DHT22;4391;48.678;9.280;2022-11-21T16:58:02;4.90;1.00
8709;DHT22;4391;48.678;9.280;2022-11-21T17:00:29;4.90;1.00